Ever Unicorn — 9V7963 — position and weather

sailwx.info

Track history (hours):
 
Tides and Currents Weather Stations Pressure Air Temp Water Temp Dewpoint Dewpoint Depression Visibility Wind Speed Wind Dir Waves Ship Positions

Ever Unicorn

Last reported at 2015-May-30 05:23 UTC. Time now 2015-May-30 22:41 UTC.
Position N 39°27' W 129°34'.

Length 285 m; draft 10.2 m.

Type: Ship (hazmat cat D). MMSI: 564995000.

Date/timePositionNaut miles runAvg speedWind from/ knotsBaromVisibWave heightAir tempDewpointWater temp
2015-May-30 05:23N 39°27' W 129°34'20313.3
2015-May-29 14:09N 38°11' W 125°32'813.1
2015-May-29 13:33N 38°11' W 125°22'1312.9
2015-May-29 12:33N 38°11' W 125°06'1312.4
2015-May-29 11:30N 38°11' W 124°49'1212.3
2015-May-29 10:33N 38°11' W 124°34'1312.6
2015-May-29 09:33N 38°11' W 124°18'1312.6
2015-May-29 08:33N 38°10' W 124°02'1212.2
2015-May-29 07:33N 38°10' W 123°46'1212.4
2015-May-29 06:33N 38°09' W 123°31'1211.5
2015-May-29 05:33N 38°05' W 123°17'1212.0
2015-May-29 04:33N 37°57' W 123°06'1212.1
2015-May-29 03:33N 37°51' W 122°52'1211.6
2015-May-29 02:33N 37°46' W 122°39'1110.5
2015-May-29 01:33N 37°50' W 122°27'6 5.5
2015-May-29 00:33N 37°48' W 122°20'0 0.0
2015-May-28 23:33N 37°48' W 122°20'0 0.0
2015-May-28 22:33N 37°48' W 122°20'0 0.0
2015-May-28 21:30N 37°48' W 122°20'0 0.0
2015-May-28 20:30N 37°48' W 122°20'0 0.0
2015-May-28 19:30N 37°48' W 122°20'0 0.0
2015-May-28 18:33N 37°48' W 122°20'0 0.0
2015-May-28 17:33N 37°48' W 122°20'0 0.0
2015-May-28 16:33N 37°48' W 122°20'0 0.0
2015-May-28 15:30N 37°48' W 122°20'0 0.0
2015-May-28 14:33N 37°48' W 122°20'0 0.0
2015-May-28 13:30N 37°48' W 122°20'0 0.0
2015-May-28 12:33N 37°48' W 122°20'0 0.0
2015-May-28 11:33N 37°48' W 122°20'0 0.0
2015-May-28 10:33N 37°48' W 122°20'0 0.0
2015-May-28 09:33N 37°48' W 122°20'0 0.0
2015-May-28 08:33N 37°48' W 122°20'0 0.0
2015-May-28 07:30N 37°48' W 122°20'0 0.0
2015-May-28 06:33N 37°48' W 122°20'0 0.0
2015-May-28 05:33N 37°48' W 122°20'0 0.0
2015-May-28 04:30N 37°48' W 122°20'0 0.0
2015-May-28 03:18N 37°48' W 122°20'0 0.0
2015-May-28 02:33N 37°48' W 122°20'0 0.0
2015-May-28 01:30N 37°48' W 122°20'0 0.0
2015-May-28 00:33N 37°48' W 122°20'0 0.0
2015-May-27 23:33N 37°48' W 122°20'0 0.0
2015-May-27 22:33N 37°48' W 122°20'0 0.0
2015-May-27 21:33N 37°48' W 122°20'0 0.0
2015-May-27 20:33N 37°48' W 122°20'0 0.0
2015-May-27 19:33N 37°48' W 122°20'0 0.0
2015-May-27 18:33N 37°48' W 122°20'0 0.0
2015-May-27 17:33N 37°48' W 122°20'0 0.0
2015-May-27 16:33N 37°48' W 122°20'0 0.0
2015-May-27 15:33N 37°48' W 122°20'0 0.0
2015-May-27 14:33N 37°48' W 122°20'0 0.0
2015-May-27 13:33N 37°48' W 122°20'0 0.1
2015-May-27 12:33N 37°49' W 122°20'9 9.1
2015-May-27 11:33N 37°48' W 122°32'10 9.5
2015-May-27 10:33N 37°41' W 122°40'1010.3
2015-May-27 09:33N 37°30' W 122°39'1514.8
2015-May-27 08:34N 37°15' W 122°39'1616.3
2015-May-27 07:33N 36°59' W 122°35'1616.3
2015-May-27 06:33N 36°44' W 122°29'1616.4
2015-May-27 05:33N 36°29' W 122°19'1616.2
2015-May-27 04:33N 36°15' W 122°11'1616.3
2015-May-27 03:33N 36°01' W 122°00'1616.3
2015-May-27 02:33N 35°47' W 121°50'1616.4
2015-May-27 01:33N 35°33' W 121°40'1616.4
2015-May-27 00:33N 35°19' W 121°29'1616.4
2015-May-26 23:33N 35°04' W 121°19'1716.6
2015-May-26 22:33N 34°50' W 121°09'2116.4
2015-May-26 21:18N 34°33' W 120°56'9316.0
2015-May-26 15:31N 34°02' W 119°10'4711.7
2015-May-26 11:32N 33°39' W 118°21'6 6.5
2015-May-26 10:33N 33°43' W 118°16'1 1.0
2015-May-26 09:32N 33°44' W 118°15'0 0.0
2015-May-26 08:32N 33°44' W 118°15'0 0.0
2015-May-26 07:32N 33°44' W 118°15'0 0.0
2015-May-26 06:32N 33°44' W 118°15'0 0.0
2015-May-26 05:32N 33°44' W 118°15'0 0.0
2015-May-26 04:32N 33°44' W 118°15'0 0.0
2015-May-26 03:32N 33°44' W 118°15'0 0.0
2015-May-26 02:32N 33°44' W 118°15'0 0.0
2015-May-26 01:23N 33°44' W 118°15'0 0.0
2015-May-25 23:29N 33°44' W 118°15'0 0.1
2015-May-25 22:32N 33°44' W 118°15'0 0.0
2015-May-25 20:14N 33°44' W 118°15'0 0.0
2015-May-25 19:32N 33°44' W 118°15'0 0.0
2015-May-25 18:32N 33°44' W 118°15'0 0.0
2015-May-25 17:32N 33°44' W 118°15'0 0.0
2015-May-25 09:33N 33°44' W 118°15'0 0.0
2015-May-25 08:34N 33°44' W 118°15'0 0.0
2015-May-25 07:33N 33°44' W 118°15'0 0.0
2015-May-25 06:33N 33°44' W 118°15'0 0.0
2015-May-25 05:33N 33°44' W 118°15'0 0.0
2015-May-25 04:33N 33°44' W 118°15'0 0.0
2015-May-25 03:34N 33°44' W 118°15'0 0.0
2015-May-25 02:32N 33°44' W 118°15'0 0.0
2015-May-25 01:34N 33°44' W 118°15'0 0.0
2015-May-25 00:34N 33°44' W 118°15'0 0.0
2015-May-24 23:32N 33°44' W 118°15'0 0.0
2015-May-24 22:34N 33°44' W 118°15'0 0.0
2015-May-24 21:33N 33°44' W 118°15'0 0.0
2015-May-24 20:33N 33°44' W 118°15'0 0.0
2015-May-24 17:33N 33°44' W 118°15'0 0.0
2015-May-24 16:33N 33°44' W 118°15'0 0.0
2015-May-24 15:18N 33°44' W 118°15'1 0.2
2015-May-24 11:32N 33°43' W 118°16'8 6.1
2015-May-24 10:17N 33°36' W 118°17'9713.8
2015-May-24 03:16N 33°29' W 120°13'  
Track history (hours):
 
Tides and Currents Weather Stations Pressure Air Temp Water Temp Dewpoint Dewpoint Depression Visibility Wind Speed Wind Dir Waves Ship Positions

Ever Unicorn

Last reported at 2015-May-30 05:23 UTC. Time now 2015-May-30 22:41 UTC.
Position N 39°27' W 129°34'.

Length 285 m; draft 10.2 m.

Type: Ship (hazmat cat D). MMSI: 564995000.

Date/timePositionNaut miles runAvg speedWind from/ knotsBaromVisibWave heightAir tempDewpointWater temp
2015-May-30 05:23N 39°27' W 129°34'20313.3
2015-May-29 14:09N 38°11' W 125°32'813.1
2015-May-29 13:33N 38°11' W 125°22'1312.9
2015-May-29 12:33N 38°11' W 125°06'1312.4
2015-May-29 11:30N 38°11' W 124°49'1212.3
2015-May-29 10:33N 38°11' W 124°34'1312.6
2015-May-29 09:33N 38°11' W 124°18'1312.6
2015-May-29 08:33N 38°10' W 124°02'1212.2
2015-May-29 07:33N 38°10' W 123°46'1212.4
2015-May-29 06:33N 38°09' W 123°31'1211.5
2015-May-29 05:33N 38°05' W 123°17'1212.0
2015-May-29 04:33N 37°57' W 123°06'1212.1
2015-May-29 03:33N 37°51' W 122°52'1211.6
2015-May-29 02:33N 37°46' W 122°39'1110.5
2015-May-29 01:33N 37°50' W 122°27'6 5.5
2015-May-29 00:33N 37°48' W 122°20'0 0.0
2015-May-28 23:33N 37°48' W 122°20'0 0.0
2015-May-28 22:33N 37°48' W 122°20'0 0.0
2015-May-28 21:30N 37°48' W 122°20'0 0.0
2015-May-28 20:30N 37°48' W 122°20'0 0.0
2015-May-28 19:30N 37°48' W 122°20'0 0.0
2015-May-28 18:33N 37°48' W 122°20'0 0.0
2015-May-28 17:33N 37°48' W 122°20'0 0.0
2015-May-28 16:33N 37°48' W 122°20'0 0.0
2015-May-28 15:30N 37°48' W 122°20'0 0.0
2015-May-28 14:33N 37°48' W 122°20'0 0.0
2015-May-28 13:30N 37°48' W 122°20'0 0.0
2015-May-28 12:33N 37°48' W 122°20'0 0.0
2015-May-28 11:33N 37°48' W 122°20'0 0.0
2015-May-28 10:33N 37°48' W 122°20'0 0.0
2015-May-28 09:33N 37°48' W 122°20'0 0.0
2015-May-28 08:33N 37°48' W 122°20'0 0.0
2015-May-28 07:30N 37°48' W 122°20'0 0.0
2015-May-28 06:33N 37°48' W 122°20'0 0.0
2015-May-28 05:33N 37°48' W 122°20'0 0.0
2015-May-28 04:30N 37°48' W 122°20'0 0.0
2015-May-28 03:18N 37°48' W 122°20'0 0.0
2015-May-28 02:33N 37°48' W 122°20'0 0.0
2015-May-28 01:30N 37°48' W 122°20'0 0.0
2015-May-28 00:33N 37°48' W 122°20'0 0.0
2015-May-27 23:33N 37°48' W 122°20'0 0.0
2015-May-27 22:33N 37°48' W 122°20'0 0.0
2015-May-27 21:33N 37°48' W 122°20'0 0.0
2015-May-27 20:33N 37°48' W 122°20'0 0.0
2015-May-27 19:33N 37°48' W 122°20'0 0.0
2015-May-27 18:33N 37°48' W 122°20'0 0.0
2015-May-27 17:33N 37°48' W 122°20'0 0.0
2015-May-27 16:33N 37°48' W 122°20'0 0.0
2015-May-27 15:33N 37°48' W 122°20'0 0.0
2015-May-27 14:33N 37°48' W 122°20'0 0.0
2015-May-27 13:33N 37°48' W 122°20'0 0.1
2015-May-27 12:33N 37°49' W 122°20'9 9.1
2015-May-27 11:33N 37°48' W 122°32'10 9.5
2015-May-27 10:33N 37°41' W 122°40'1010.3
2015-May-27 09:33N 37°30' W 122°39'1514.8
2015-May-27 08:34N 37°15' W 122°39'1616.3
2015-May-27 07:33N 36°59' W 122°35'1616.3
2015-May-27 06:33N 36°44' W 122°29'1616.4
2015-May-27 05:33N 36°29' W 122°19'1616.2
2015-May-27 04:33N 36°15' W 122°11'1616.3
2015-May-27 03:33N 36°01' W 122°00'1616.3
2015-May-27 02:33N 35°47' W 121°50'1616.4
2015-May-27 01:33N 35°33' W 121°40'1616.4
2015-May-27 00:33N 35°19' W 121°29'1616.4
2015-May-26 23:33N 35°04' W 121°19'1716.6
2015-May-26 22:33N 34°50' W 121°09'2116.4
2015-May-26 21:18N 34°33' W 120°56'9316.0
2015-May-26 15:31N 34°02' W 119°10'4711.7
2015-May-26 11:32N 33°39' W 118°21'6 6.5
2015-May-26 10:33N 33°43' W 118°16'1 1.0
2015-May-26 09:32N 33°44' W 118°15'0 0.0
2015-May-26 08:32N 33°44' W 118°15'0 0.0
2015-May-26 07:32N 33°44' W 118°15'0 0.0
2015-May-26 06:32N 33°44' W 118°15'0 0.0
2015-May-26 05:32N 33°44' W 118°15'0 0.0
2015-May-26 04:32N 33°44' W 118°15'0 0.0
2015-May-26 03:32N 33°44' W 118°15'0 0.0
2015-May-26 02:32N 33°44' W 118°15'0 0.0
2015-May-26 01:23N 33°44' W 118°15'0 0.0
2015-May-25 23:29N 33°44' W 118°15'0 0.1
2015-May-25 22:32N 33°44' W 118°15'0 0.0
2015-May-25 20:14N 33°44' W 118°15'0 0.0
2015-May-25 19:32N 33°44' W 118°15'0 0.0
2015-May-25 18:32N 33°44' W 118°15'0 0.0
2015-May-25 17:32N 33°44' W 118°15'0 0.0
2015-May-25 09:33N 33°44' W 118°15'0 0.0
2015-May-25 08:34N 33°44' W 118°15'0 0.0
2015-May-25 07:33N 33°44' W 118°15'0 0.0
2015-May-25 06:33N 33°44' W 118°15'0 0.0
2015-May-25 05:33N 33°44' W 118°15'0 0.0
2015-May-25 04:33N 33°44' W 118°15'0 0.0
2015-May-25 03:34N 33°44' W 118°15'0 0.0
2015-May-25 02:32N 33°44' W 118°15'0 0.0
2015-May-25 01:34N 33°44' W 118°15'0 0.0
2015-May-25 00:34N 33°44' W 118°15'0 0.0
2015-May-24 23:32N 33°44' W 118°15'0 0.0
2015-May-24 22:34N 33°44' W 118°15'0 0.0
2015-May-24 21:33N 33°44' W 118°15'0 0.0
2015-May-24 20:33N 33°44' W 118°15'0 0.0
2015-May-24 17:33N 33°44' W 118°15'0 0.0
2015-May-24 16:33N 33°44' W 118°15'0 0.0
2015-May-24 15:18N 33°44' W 118°15'1 0.2
2015-May-24 11:32N 33°43' W 118°16'8 6.1
2015-May-24 10:17N 33°36' W 118°17'9713.8
2015-May-24 03:16N 33°29' W 120°13'  

Dump ship's entire track history